createdAt,value
2022-12-05T00:00:39.185Z,80.38
2022-12-05T00:06:41.889Z,84.17
2022-12-05T00:12:43.466Z,76.72
2022-12-05T00:18:45.259Z,77.20
2022-12-05T00:24:46.817Z,73.10
2022-12-05T00:30:48.394Z,76.13
2022-12-05T00:36:49.921Z,65.30
2022-12-05T00:42:52.549Z,83.97
2022-12-05T00:48:54.838Z,88.77
2022-12-05T00:54:56.388Z,69.07
2022-12-05T01:00:58.015Z,78.70
2022-12-05T01:06:59.598Z,87.47
2022-12-05T01:13:01.086Z,75.15
2022-12-05T01:19:04.784Z,81.00
2022-12-05T01:25:06.724Z,76.68
2022-12-05T01:31:25.369Z,83.07
2022-12-05T01:37:27.037Z,72.83
2022-12-05T01:43:28.637Z,81.10
2022-12-05T01:49:36.098Z,76.00
2022-12-05T01:55:38.132Z,70.75
2022-12-05T02:01:40.068Z,76.22
2022-12-05T02:07:43.455Z,65.53
2022-12-05T02:14:03.647Z,75.20
2022-12-05T02:20:13.996Z,77.67
2022-12-05T02:26:30.396Z,80.28
2022-12-05T02:32:36.267Z,79.93
2022-12-05T02:38:46.397Z,78.93
2022-12-05T02:44:50.353Z,69.22
2022-12-05T02:50:52.267Z,66.87
2022-12-05T02:56:54.913Z,69.18
2022-12-05T03:02:58.211Z,65.13
2022-12-05T03:09:01.811Z,62.87
2022-12-05T03:15:09.434Z,64.53
2022-12-05T03:21:15.965Z,65.60
2022-12-05T03:27:29.701Z,59.28
2022-12-05T03:33:34.609Z,57.92
2022-12-05T03:39:37.569Z,55.77
2022-12-05T03:45:47.976Z,56.20
2022-12-05T03:51:55.130Z,63.27
2022-12-05T03:57:58.739Z,53.15
2022-12-05T04:04:03.196Z,55.80
2022-12-05T04:10:15.613Z,58.37
2022-12-05T04:16:38.559Z,59.95
2022-12-05T04:22:40.515Z,56.27
2022-12-05T04:28:48.846Z,56.22
2022-12-05T04:34:55.023Z,53.30
2022-12-05T04:41:01.861Z,55.17
2022-12-05T04:47:05.214Z,56.08
2022-12-05T04:53:08.757Z,55.07
2022-12-05T04:59:10.765Z,62.60
2022-12-05T05:05:14.342Z,58.20
2022-12-05T05:11:18.992Z,56.97
2022-12-05T05:17:20.487Z,53.58
2022-12-05T05:23:22.003Z,69.30
2022-12-05T05:29:23.488Z,57.72
2022-12-05T05:35:25.009Z,56.50
2022-12-05T05:41:27.535Z,58.10
2022-12-05T05:47:29.076Z,60.38
2022-12-05T05:53:30.842Z,61.47
2022-12-05T05:59:32.571Z,61.00
2022-12-05T06:05:34.147Z,55.80
2022-12-05T06:11:35.623Z,61.33
2022-12-05T06:17:37.230Z,59.40
2022-12-05T06:23:39.352Z,65.77
2022-12-05T06:29:41.214Z,63.72
2022-12-05T06:35:43.002Z,70.43
2022-12-05T06:41:44.497Z,71.33
2022-12-05T06:47:46.032Z,63.38
2022-12-05T06:53:47.761Z,61.93
2022-12-05T06:59:49.339Z,58.30
2022-12-05T07:05:50.810Z,62.08
2022-12-05T07:11:52.339Z,63.30
2022-12-05T07:17:53.879Z,61.20
2022-12-05T07:23:55.442Z,64.03
2022-12-05T07:29:57.364Z,54.40
2022-12-05T07:36:02.834Z,56.30
2022-12-05T07:42:04.394Z,57.93
2022-12-05T07:48:06.001Z,54.33
2022-12-05T07:54:07.721Z,56.20
2022-12-05T08:00:09.618Z,59.22
2022-12-05T08:06:16.318Z,63.72
2022-12-05T08:12:17.861Z,56.90
2022-12-05T08:18:21.954Z,56.40
2022-12-05T08:24:27.484Z,47.30
2022-12-05T08:30:29.149Z,42.70
2022-12-05T08:36:31.316Z,46.80
2022-12-05T08:42:32.813Z,36.77
2022-12-05T08:48:34.975Z,32.22
2022-12-05T08:54:36.521Z,38.67
2022-12-05T09:00:38.551Z,33.17
2022-12-05T09:06:40.196Z,39.65
2022-12-05T09:12:41.930Z,45.90
2022-12-05T09:18:43.780Z,38.42
2022-12-05T09:24:45.366Z,37.70
2022-12-05T09:30:55.347Z,37.85
2022-12-05T09:37:10.542Z,31.33
2022-12-05T09:43:24.213Z,39.70
2022-12-05T09:49:26.265Z,32.15
2022-12-05T09:55:49.325Z,27.47
2022-12-05T10:01:57.778Z,27.48
2022-12-05T10:08:08.575Z,27.00
2022-12-05T10:14:16.300Z,23.50
2022-12-05T10:20:22.152Z,26.08
2022-12-05T10:26:34.131Z,23.97
2022-12-05T10:32:49.606Z,26.70
2022-12-05T10:38:51.266Z,24.25
2022-12-05T10:44:57.034Z,22.47
2022-12-05T10:50:59.815Z,25.17
2022-12-05T10:57:01.850Z,23.60
2022-12-05T11:03:04.550Z,25.98
2022-12-05T11:09:14.316Z,29.35
2022-12-05T11:15:15.820Z,24.87
2022-12-05T11:21:19.919Z,24.48
2022-12-05T11:27:26.406Z,24.77
2022-12-05T11:33:29.238Z,23.98
2022-12-05T11:39:31.622Z,24.67
2022-12-05T11:45:37.689Z,34.47
2022-12-05T11:51:43.204Z,23.50
2022-12-05T11:57:52.032Z,25.40
2022-12-05T12:04:02.711Z,22.52
2022-12-05T12:10:09.484Z,23.85
2022-12-05T12:16:11.555Z,22.87
2022-12-05T12:22:33.446Z,20.90
2022-12-05T12:28:35.022Z,22.63
2022-12-05T12:34:56.536Z,20.85
2022-12-05T12:41:18.569Z,20.98
2022-12-05T12:47:26.342Z,20.37
2022-12-05T12:53:36.799Z,20.83
2022-12-05T12:59:53.077Z,19.90
2022-12-05T13:06:16.032Z,20.63
2022-12-05T13:12:21.945Z,18.20
2022-12-05T13:18:24.673Z,21.37
2022-12-05T13:24:27.830Z,23.65
2022-12-05T13:30:31.008Z,21.43
2022-12-05T13:36:58.591Z,22.42
2022-12-05T13:43:01.699Z,20.77
2022-12-05T13:49:07.179Z,25.97
2022-12-05T13:55:35.633Z,23.40
2022-12-05T14:01:45.693Z,24.40
2022-12-05T14:07:51.729Z,22.75
2022-12-05T14:13:53.624Z,22.00
2022-12-05T14:20:13.366Z,23.30
2022-12-05T14:26:32.131Z,21.45
2022-12-05T14:32:38.651Z,20.80
2022-12-05T14:38:40.178Z,22.40
2022-12-05T14:44:45.836Z,23.52
2022-12-05T14:50:48.756Z,21.73
2022-12-05T14:56:54.991Z,20.83
2022-12-05T15:02:57.249Z,21.60
2022-12-05T15:09:28.675Z,21.90
2022-12-05T15:15:35.019Z,23.38
2022-12-05T15:21:41.115Z,22.23
2022-12-05T15:27:51.026Z,23.58
2022-12-05T15:33:54.127Z,23.87
2022-12-05T15:39:59.843Z,23.75
2022-12-05T15:46:08.649Z,23.92
2022-12-05T15:52:19.362Z,26.97
2022-12-05T15:58:25.616Z,22.40
2022-12-05T16:04:29.732Z,26.03
2022-12-05T16:10:32.278Z,24.83
2022-12-05T16:16:37.108Z,26.27
2022-12-05T16:22:43.496Z,25.67
2022-12-05T16:28:56.202Z,26.15
2022-12-05T16:34:57.747Z,24.20
2022-12-05T16:41:00.220Z,27.42
2022-12-05T16:47:01.790Z,25.75
2022-12-05T16:53:09.180Z,22.73
2022-12-05T16:59:18.877Z,27.25
2022-12-05T17:05:20.377Z,29.70
2022-12-05T17:11:23.981Z,27.05
2022-12-05T17:17:25.619Z,29.42
2022-12-05T17:23:27.532Z,26.30
2022-12-05T17:29:35.261Z,21.02
2022-12-05T17:35:37.811Z,25.50
2022-12-05T17:41:39.389Z,28.77
2022-12-05T17:47:41.347Z,23.88
2022-12-05T17:53:44.490Z,25.43
2022-12-05T17:59:46.159Z,25.10
2022-12-05T18:05:47.828Z,24.40
2022-12-05T18:11:49.622Z,22.30
2022-12-05T18:17:51.239Z,22.40
2022-12-05T18:23:53.060Z,23.23
2022-12-05T18:29:54.706Z,23.98
2022-12-05T18:35:56.253Z,21.17
2022-12-05T18:41:57.887Z,22.05
2022-12-05T18:48:23.036Z,19.10
2022-12-05T18:54:21.681Z,20.10
2022-12-05T19:00:23.227Z,20.05
2022-12-05T19:06:29.798Z,20.17
2022-12-05T19:12:32.283Z,20.25
2022-12-05T19:18:34.231Z,23.35
2022-12-05T19:24:37.029Z,18.73
2022-12-05T19:30:39.215Z,21.70
2022-12-05T19:36:44.718Z,19.93
2022-12-05T19:42:46.299Z,20.70
2022-12-05T19:48:48.090Z,18.83
2022-12-05T19:54:50.020Z,20.93
2022-12-05T20:00:52.489Z,20.20
2022-12-05T20:06:54.334Z,18.23
2022-12-05T20:12:56.279Z,19.20
2022-12-05T20:18:59.210Z,19.30
2022-12-05T20:25:01.004Z,17.47
2022-12-05T20:31:10.338Z,17.52
2022-12-05T20:37:11.916Z,14.93
2022-12-05T20:43:13.500Z,18.73
2022-12-05T20:49:15.061Z,16.30
2022-12-05T20:55:16.639Z,17.17
2022-12-05T21:01:19.337Z,16.45
2022-12-05T21:07:20.985Z,14.17
2022-12-05T21:13:22.496Z,14.80
2022-12-05T21:19:24.071Z,14.68
2022-12-05T21:25:25.596Z,14.57
2022-12-05T21:31:34.221Z,15.65
2022-12-05T21:37:36.076Z,19.20
2022-12-05T21:43:37.850Z,16.90
2022-12-05T21:49:39.387Z,18.50
2022-12-05T21:55:41.731Z,17.87
2022-12-05T22:01:43.410Z,14.23
2022-12-05T22:07:44.974Z,16.60
2022-12-05T22:13:47.413Z,15.50
2022-12-05T22:19:48.985Z,19.13
2022-12-05T22:26:10.465Z,18.90
2022-12-05T22:32:12.001Z,18.30
2022-12-05T22:38:13.656Z,17.43
2022-12-05T22:44:15.241Z,18.88
2022-12-05T22:50:16.876Z,15.95
2022-12-05T22:56:19.440Z,16.53
2022-12-05T23:02:20.960Z,19.58
2022-12-05T23:08:22.501Z,17.27
2022-12-05T23:14:24.028Z,18.30
2022-12-05T23:20:25.640Z,17.17
2022-12-05T23:26:28.998Z,17.23
2022-12-05T23:32:30.607Z,16.77
2022-12-05T23:38:33.409Z,15.90
2022-12-05T23:44:34.943Z,18.13
2022-12-05T23:50:36.792Z,15.55
2022-12-05T23:56:38.444Z,15.87
